Thursday, March 21, 2019, 8:19 PM GMT
Back to Local

CYUL, Montreal / Pierre Elliot Trudeau International Airport, Que

Location: , , Canada Lat: 45.467
Local Time: 8:19 PM GMT (20:19 GMT) Lon: -73.75
Time Zone: GMT Elev: 101 ft

Show me the last for .
Show Decoded

2019-03-21 20:00 METAR CYUL 212000Z 15005KT 15SM SCT045 BKN110 OVC240 07/M02 A2990 RMK SC3AC2CS3
                 SLP129 =
2019-03-21 19:00 METAR CYUL 211900Z 12006KT 15SM FEW070 OVC100 06/M02 A2993 RMK AC1AC7 SLP138 =
2019-03-21 18:00 METAR CYUL 211800Z 14005KT 15SM FEW055 OVC110 07/M01 A2996 RMK SC2AC6 SLP149 =
2019-03-21 17:00 METAR CYUL 211700Z 15007KT 15SM FEW040 BKN055 OVC110 06/M01 A2999 RMK SC2SC4AC2
                 SLP159 =
2019-03-21 16:00 METAR CYUL 211600Z 15006KT 15SM FEW025 OVC040 05/M00 A3002 RMK SC2SC6 SLP167 =
2019-03-21 15:00 METAR CYUL 211500Z 16008KT 15SM BKN025 OVC040 05/00 A3004 RMK SC5SC3 SLP174 =
2019-03-21 14:00 METAR CYUL 211400Z 17008KT 15SM FEW042 OVC065 05/M02 A3005 RMK SC2SC6 SLP180 =
2019-03-21 13:21 METAR CYUL 211321Z 17006KT 15SM FEW035 OVC070 05/M03 A3006 RMK SC2AC6 SLP183 =
2019-03-21 13:00 METAR CYUL 211300Z 18007KT 15SM -RA SCT035 BKN060 04/M03 A3007 RMK SC3SC4 SLP186
                 =
2019-03-21 12:48 METAR CYUL 211248Z 17008KT 15SM -RA BKN033 BKN045 04/M03 A3008 RMK SC5SC2 SLP187
                 =
2019-03-21 12:00 METAR CYUL 211200Z 16010KT 15SM BKN040 OVC055 03/M03 A3008 RMK SC6SC2 SLP188 =
2019-03-21 11:00 METAR CYUL 211100Z 15007KT 15SM OVC085 02/M04 A3007 RMK AC8 SLP184 =
2019-03-21 10:00 METAR CYUL 211000Z 14003KT 15SM BKN070 OVC095 02/M04 A3007 RMK AC6AC2 SLP186 =
2019-03-21 09:00 METAR CYUL 210900Z 15006KT 15SM BKN080 OVC100 02/M04 A3008 RMK AC6AC2 SLP188 =
2019-03-21 08:00 METAR CYUL 210800Z 12005KT 110V180 15SM OVC170 02/M04 A3008 RMK AC8 SLP189 =
2019-03-21 07:00 METAR CYUL 210700Z 15003KT 15SM FEW120 OVC180 02/M04 A3010 RMK AC2AS6 SLP195 =
2019-03-21 06:00 METAR CYUL 210600Z 00000KT 15SM FEW150 OVC180 02/M04 A3011 RMK AC2AS6 SLP199 =
2019-03-21 05:29 METAR CYUL 210529Z 13002KT 15SM FEW150 OVC210 02/M04 A3012 RMK AC2CS6 SLP201 =
2019-03-21 05:00 METAR CYUL 210500Z 16003KT 15SM SCT120 OVC170 03/M04 A3012 RMK AC4AS4 SLP202 =
2019-03-21 04:16 METAR CYUL 210416Z 00000KT 15SM SCT120 OVC170 02/M04 A3013 RMK AC3AS5 SLP205 =
2019-03-21 04:00 METAR CYUL 210400Z 16002KT 15SM BKN120 BKN240 03/M04 A3013 RMK AC6CI1 SLP206 =
2019-03-21 03:18 METAR CYUL 210318Z 15003KT 15SM SCT120 BKN240 02/M04 A3013 RMK AC4CC3 SLP207 =
2019-03-21 03:00 METAR CYUL 210300Z 15004KT 15SM SCT120 BKN240 03/M04 A3014 RMK AC4CC3 SLP209 =
2019-03-21 02:00 METAR CYUL 210200Z 14002KT 15SM BKN240 04/M04 A3015 RMK CI6 SLP215 =
2019-03-21 01:00 METAR CYUL 210100Z 00000KT 15SM SCT240 04/M04 A3016 RMK CI3 SLP216 =
2019-03-21 00:00 METAR CYUL 210000Z 16006KT 15SM FEW120 BKN240 06/M04 A3015 RMK AC1CI5 SLP213 =
2019-03-20 23:00 METAR CYUL 202300Z 19003KT 170V240 15SM FEW150 BKN240 06/M04 A3016 RMK AC1CI6
                 SLP216 =
2019-03-20 22:00 METAR CYUL 202200Z 23006KT 15SM FEW070 FEW150 SCT200 OVC240 06/M04 A3015 RMK
                 AC1AC1CI3CI4 AC TR SLP213 =
2019-03-20 21:00 METAR CYUL 202100Z 19010KT 15SM FEW070 BKN240 07/M04 A3015 RMK AC1CI6 SLP215 =

Support USWX by starting your Amazon purchase here.